Time;durP1;ratioP1;P1;durP2;ratioP2;P2;SDS_P1;SDS_P2;PMS_P1;PMS_P2;Temp;Humidity;BMP_temperature;BMP_pressure;BME280_temperature;BME280_humidity;BME280_pressure;Samples;Min_cycle;Max_cycle;Signal;HPM_P1;HPM_P2
2022/05/27 03:08:11;;;;;;;6.07;2.97;;;11.60;99.90;;;;;;5287855;23;20053;-78
2022/05/27 03:10:51;;;;;;;8.77;3.42;;;11.60;99.90;;;;;;4851204;29;20056;-78
2022/05/27 03:13:31;;;;;;;11.48;3.65;;;11.60;99.90;;;;;;4850525;29;20156;-78
2022/05/27 03:16:13;;;;;;;6.15;2.80;;;11.60;99.90;;;;;;4866116;29;20068;-78
2022/05/27 03:19:06;;;;;;;5.93;2.55;;;11.60;99.90;;;;;;4875869;29;20064;-78
2022/05/27 07:24:39;;;;;;;6.78;2.38;;;13.10;99.90;;;;;;4850811;29;20493;-79
2022/05/27 07:28:25;;;;;;;10.85;2.22;;;13.30;99.90;;;;;;4830917;29;20143;-80
2022/05/27 07:31:29;;;;;;;7.60;1.73;;;13.80;99.90;;;;;;4848306;29;20574;-78
2022/05/27 07:34:16;;;;;;;7.18;1.92;;;13.90;99.90;;;;;;4826846;29;20465;-79
2022/05/27 07:37:06;;;;;;;;;;;;;;;;;;;;;
2022/05/27 07:39:59;;;;;;;8.25;2.40;;;14.00;99.90;;;;;;4855504;29;20519;-77
2022/05/27 07:42:36;;;;;;;6.10;1.77;;;14.10;99.90;;;;;;4847840;29;20051;-78
2022/05/27 07:46:02;;;;;;;8.57;2.47;;;14.30;99.90;;;;;;4796235;29;20192;-78
2022/05/27 07:48:57;;;;;;;;;;;;;;;;;;;;;
2022/05/27 07:51:50;;;;;;;5.43;1.88;;;15.70;99.90;;;;;;4874026;23;20530;-78
2022/05/27 07:55:09;;;;;;;;;;;;;;;;;;;;;
2022/05/27 08:06:48;;;;;;;5.70;1.83;;;18.20;99.90;;;;;;4775034;30;20054;-79
2022/05/27 08:17:45;;;;;;;;;;;;;;;;;;;;;
2022/05/27 08:21:22;;;;;;;7.35;1.48;;;18.10;99.90;;;;;;4758603;30;20051;-78
2022/05/27 08:25:04;;;;;;;;;;;;;;;;;;;;;
2022/05/27 08:28:44;;;;;;;5.78;1.65;;;17.40;99.90;;;;;;4755586;30;20060;-79
2022/05/27 08:32:42;;;;;;;3.80;1.30;;;18.00;99.90;;;;;;4747000;30;20052;-78
2022/05/27 08:39:32;;;;;;;6.65;1.42;;;18.50;99.90;;;;;;4647264;30;20390;-78
2022/05/27 08:42:36;;;;;;;6.70;1.75;;;18.00;99.90;;;;;;4728856;30;20059;-77
2022/05/27 08:49:06;;;;;;;5.70;1.45;;;18.40;99.90;;;;;;4807628;29;20066;-77
2022/05/27 08:52:06;;;;;;;8.40;1.40;;;19.20;99.90;;;;;;4804398;29;20452;-78
2022/05/27 09:02:57;;;;;;;5.50;1.98;;;19.00;99.90;;;;;;4853484;29;20051;-78
2022/05/27 09:06:15;;;;;;;5.40;1.70;;;19.40;99.90;;;;;;4853124;29;20083;-77
2022/05/27 09:16:17;;;;;;;5.93;1.35;;;18.60;99.90;;;;;;4869805;29;20120;-79
2022/05/27 09:27:01;;;;;;;5.63;1.52;;;19.90;99.90;;;;;;4793176;29;20523;-79
2022/05/27 09:36:34;;;;;;;2.65;0.80;;;19.20;99.90;;;;;;4862224;29;20141;-80
2022/05/27 09:43:38;;;;;;;;;;;;;;;;;;;;;
2022/05/27 09:46:40;;;;;;;5.03;0.98;;;19.90;99.90;;;;;;4741841;30;20056;-78
2022/05/27 09:50:20;;;;;;;5.00;0.90;;;19.80;99.90;;;;;;4730341;30;20068;-78
2022/05/27 09:52:56;;;;;;;4.53;1.00;;;19.50;99.90;;;;;;4721271;30;20052;-78
2022/05/27 09:56:48;;;;;;;4.45;0.90;;;19.50;99.90;;;;;;4833432;29;20048;-78
2022/05/27 09:59:53;;;;;;;;;;;20.10;99.90;;;;;;4840313;29;20065;-78
2022/05/27 10:02:55;;;;;;;;;;;;;;;;;;;;;
2022/05/27 10:06:04;;;;;;;;;;;;;;;;;;;;;
2022/05/27 10:16:39;;;;;;;5.05;1.20;;;21.50;99.90;;;;;;4867258;29;20128;-79
2022/05/27 10:19:44;;;;;;;4.65;1.25;;;21.70;99.90;;;;;;4854027;29;20512;-79
2022/05/27 10:22:34;;;;;;;5.70;1.60;;;22.10;99.90;;;;;;4847287;29;20149;-78
2022/05/27 10:25:16;;;;;;;6.43;1.30;;;22.50;99.90;;;;;;4859679;29;20047;-77
2022/05/27 10:28:04;;;;;;;3.85;1.58;;;22.70;99.90;;;;;;4839774;29;20045;-77
2022/05/27 10:30:51;;;;;;;4.93;1.30;;;22.50;99.00;;;;;;4838112;29;20143;-78
2022/05/27 10:33:41;;;;;;;4.68;1.38;;;22.40;99.90;;;;;;4839841;29;20101;-77
2022/05/27 10:36:49;;;;;;;5.78;1.27;;;22.60;99.90;;;;;;4842365;29;20057;-78
2022/05/27 10:39:57;;;;;;;6.47;1.70;;;23.10;99.90;;;;;;4840212;29;20116;-77
2022/05/27 10:42:53;;;;;;;6.22;0.93;;;22.90;96.80;;;;;;4853155;29;20692;-78
2022/05/27 10:45:21;;;;;;;3.50;1.17;;;22.70;99.90;;;;;;4838831;29;20420;-77
2022/05/27 10:48:27;;;;;;;3.95;1.25;;;22.30;99.70;;;;;;4843456;29;20033;-78
2022/05/27 10:51:47;;;;;;;3.70;1.27;;;22.20;99.90;;;;;;4838466;29;20048;-78
2022/05/27 10:55:07;;;;;;;6.80;1.40;;;22.70;97.30;;;;;;4840819;29;20048;-78
2022/05/27 11:05:25;;;;;;;4.55;1.45;;;23.30;94.60;;;;;;4857990;29;20052;-77
2022/05/27 11:08:41;;;;;;;4.40;1.20;;;23.30;85.40;;;;;;4840606;29;20053;-78
2022/05/27 11:11:57;;;;;;;5.78;1.30;;;23.40;94.20;;;;;;4764802;29;20043;-78
2022/05/27 11:18:21;;;;;;;5.38;1.70;;;22.60;97.30;;;;;;4852700;29;20049;-78
2022/05/27 11:21:34;;;;;;;5.60;1.38;;;22.90;94.00;;;;;;4841127;29;20123;-78
2022/05/27 11:25:13;;;;;;;4.43;1.40;;;23.30;90.30;;;;;;4876934;29;20052;-77
2022/05/27 11:28:33;;;;;;;6.80;1.60;;;23.70;97.30;;;;;;4839279;29;20049;-77
2022/05/27 11:35:08;;;;;;;6.93;1.48;;;23.40;85.70;;;;;;4838387;29;20073;-78
2022/05/27 11:37:54;;;;;;;5.32;1.40;;;23.30;94.80;;;;;;4853846;29;20044;-77
2022/05/27 11:41:12;;;;;;;;;;;22.50;91.10;;;;;;4847293;29;20048;-76
2022/05/27 11:44:02;;;;;;;5.35;1.77;;;22.20;90.90;;;;;;4842307;29;19931;-77
2022/05/27 11:50:30;;;;;;;5.57;1.65;;;23.00;96.60;;;;;;4857408;29;20041;-77
2022/05/27 11:53:26;;;;;;;4.80;1.55;;;22.90;92.00;;;;;;4847037;29;20388;-77
2022/05/27 11:56:49;;;;;;;4.93;1.45;;;22.80;93.70;;;;;;4841595;29;20048;-77
2022/05/27 12:00:03;;;;;;;7.97;1.52;;;22.60;96.50;;;;;;4800364;29;20128;-78
2022/05/27 12:06:17;;;;;;;4.80;1.58;;;22.10;94.50;;;;;;4854115;29;20085;-77
2022/05/27 12:09:56;;;;;;;6.20;1.73;;;21.50;94.90;;;;;;4860642;29;20055;-77
2022/05/27 12:13:19;;;;;;;4.88;1.35;;;21.50;89.40;;;;;;4847941;29;20041;-78
2022/05/27 12:16:37;;;;;;;5.53;1.55;;;21.80;94.00;;;;;;4840983;29;20084;-77
2022/05/27 12:22:33;;;;;;;4.47;1.40;;;20.90;95.40;;;;;;4864613;29;20369;-77
2022/05/27 12:25:38;;;;;;;6.30;1.45;;;20.20;95.30;;;;;;4838782;29;20044;-76
2022/05/27 12:28:30;;;;;;;8.65;2.00;;;19.60;96.60;;;;;;4852625;29;20084;-77
2022/05/27 12:31:09;;;;;;;7.07;1.80;;;19.20;97.10;;;;;;4841712;29;20044;-76
2022/05/27 12:34:12;;;;;;;4.47;1.52;;;19.10;99.20;;;;;;4845589;29;20076;-77
2022/05/27 12:36:40;;;;;;;5.78;1.55;;;19.50;99.70;;;;;;4843341;29;20049;-76
2022/05/27 12:39:12;;;;;;;5.80;1.38;;;20.00;99.30;;;;;;4864673;29;20133;-76
2022/05/27 12:42:39;;;;;;;4.95;1.40;;;19.90;96.80;;;;;;4856869;29;20188;-76
2022/05/27 12:45:31;;;;;;;6.13;1.50;;;19.70;93.80;;;;;;4856955;29;20053;-75
2022/05/27 12:48:00;;;;;;;6.63;1.35;;;19.70;97.50;;;;;;4837595;29;20057;-75
2022/05/27 12:50:33;;;;;;;6.38;1.40;;;19.80;97.00;;;;;;4843155;29;20114;-74
2022/05/27 12:53:20;;;;;;;5.70;1.23;;;19.40;95.20;;;;;;4841257;29;20040;-75
2022/05/27 13:02:19;;;;;;;7.10;1.23;;;18.90;96.00;;;;;;4864214;29;20048;-75
2022/05/27 13:05:00;;;;;;;6.63;1.25;;;18.50;97.80;;;;;;4850525;29;20069;-74
2022/05/27 13:07:37;;;;;;;5.70;1.40;;;18.50;96.30;;;;;;4840770;29;20053;-75
2022/05/27 13:10:18;;;;;;;5.00;1.42;;;18.70;99.50;;;;;;4848721;29;20048;-74
2022/05/27 13:13:05;;;;;;;9.20;1.65;;;18.60;97.90;;;;;;4849981;29;20032;-75
2022/05/27 13:15:53;;;;;;;4.53;1.20;;;18.60;96.70;;;;;;4877938;29;20495;-75
2022/05/27 13:18:22;;;;;;;7.40;1.52;;;18.50;94.50;;;;;;4844479;29;20037;-75
2022/05/27 13:21:13;;;;;;;5.65;1.40;;;18.20;97.00;;;;;;4871466;29;20037;-75
2022/05/27 13:24:02;;;;;;;7.55;1.50;;;17.90;96.90;;;;;;4847447;29;20037;-75
2022/05/27 13:26:41;;;;;;;5.05;1.50;;;17.70;99.30;;;;;;4845831;29;20607;-75
2022/05/27 13:29:25;;;;;;;5.68;1.60;;;17.60;98.80;;;;;;4856063;29;20037;-75
2022/05/27 13:32:03;;;;;;;3.63;1.20;;;17.50;99.90;;;;;;4840158;29;20045;-75
2022/05/27 13:35:15;;;;;;;6.40;1.52;;;17.50;99.90;;;;;;4849870;29;20041;-75
2022/05/27 13:38:01;;;;;;;7.93;1.38;;;17.70;99.90;;;;;;4859124;29;20053;-75
2022/05/27 13:40:33;;;;;;;8.13;1.65;;;18.50;99.90;;;;;;4840184;29;20461;-76
2022/05/27 13:43:27;;;;;;;6.68;1.73;;;18.60;95.50;;;;;;4838000;29;20069;-75
2022/05/27 13:45:56;;;;;;;7.07;1.73;;;18.40;96.70;;;;;;4846240;29;20100;-75
2022/05/27 13:48:33;;;;;;;5.18;1.83;;;18.40;98.50;;;;;;4846590;29;20097;-76
2022/05/27 13:51:16;;;;;;;7.13;1.63;;;18.40;96.70;;;;;;4867148;29;20041;-76
2022/05/27 13:53:46;;;;;;;7.00;1.90;;;18.20;96.10;;;;;;4840525;29;20060;-75
2022/05/27 13:56:38;;;;;;;7.85;1.80;;;18.30;99.80;;;;;;4847905;29;20512;-76
2022/05/27 13:59:36;;;;;;;5.43;1.60;;;19.00;96.50;;;;;;4868411;29;20064;-75
2022/05/27 14:02:13;;;;;;;7.22;1.73;;;19.20;90.90;;;;;;4847172;29;20052;-76
2022/05/27 14:05:02;;;;;;;5.30;1.17;;;19.30;95.50;;;;;;4847079;29;20057;-75
2022/05/27 14:07:56;;;;;;;6.45;1.65;;;19.60;93.70;;;;;;4829816;29;20054;-75
2022/05/27 14:10:44;;;;;;;6.13;1.27;;;19.60;92.60;;;;;;4829851;29;20128;-75
2022/05/27 14:13:34;;;;;;;5.32;1.23;;;19.60;90.60;;;;;;4835388;29;20048;-75
2022/05/27 14:16:11;;;;;;;6.25;1.58;;;19.10;88.10;;;;;;4845818;29;20064;-75
2022/05/27 14:18:39;;;;;;;9.38;1.52;;;19.10;94.50;;;;;;4848814;29;20044;-76
2022/05/27 14:23:55;;;;;;;7.72;1.48;;;19.10;87.30;;;;;;4858752;29;20674;-76
2022/05/27 14:26:24;;;;;;;4.53;1.30;;;18.70;92.10;;;;;;4848083;29;20044;-75
2022/05/27 14:28:55;;;;;;;6.82;1.25;;;18.80;94.10;;;;;;4859212;29;20085;-76
2022/05/27 14:31:37;;;;;;;6.88;1.42;;;18.80;91.50;;;;;;4843260;29;20048;-77
2022/05/27 14:34:11;;;;;;;5.85;1.65;;;18.50;89.30;;;;;;4860691;29;20052;-77
2022/05/27 14:36:50;;;;;;;4.07;1.30;;;18.00;91.00;;;;;;4831181;29;20152;-76
2022/05/27 14:39:27;;;;;;;5.93;1.50;;;17.60;93.60;;;;;;4839352;29;20148;-77
2022/05/27 14:41:53;;;;;;;5.20;1.27;;;17.30;93.80;;;;;;4847732;29;20053;-76
2022/05/27 14:44:30;;;;;;;10.13;2.05;;;17.20;96.80;;;;;;4838608;29;20428;-76
2022/05/27 14:47:23;;;;;;;7.25;1.70;;;17.20;97.50;;;;;;4843325;29;20084;-76
2022/05/27 14:50:04;;;;;;;8.45;1.90;;;17.20;96.50;;;;;;4842856;29;20124;-77
2022/05/27 14:52:35;;;;;;;7.78;1.63;;;17.10;99.10;;;;;;4831369;29;20048;-77
2022/05/27 14:55:22;;;;;;;5.63;1.45;;;17.30;97.20;;;;;;4849793;29;20053;-77
2022/05/27 14:57:56;;;;;;;7.03;1.77;;;17.40;96.50;;;;;;4851201;29;20120;-76
2022/05/27 15:01:12;;;;;;;8.48;1.67;;;17.30;97.10;;;;;;4835230;29;20409;-77
2022/05/27 15:03:44;;;;;;;5.28;1.40;;;17.20;97.70;;;;;;4856628;29;20192;-77
2022/05/27 15:06:38;;;;;;;6.60;1.63;;;16.90;94.90;;;;;;4836465;29;20048;-78
2022/05/27 15:09:36;;;;;;;7.35;1.50;;;16.70;92.00;;;;;;4854931;29;20053;-79
2022/05/27 15:12:23;;;;;;;4.95;1.38;;;16.50;96.00;;;;;;4849668;29;20060;-79
2022/05/27 15:14:58;;;;;;;3.55;1.05;;;16.30;94.80;;;;;;4850719;29;20048;-78
2022/05/27 15:17:28;;;;;;;6.55;1.20;;;16.00;96.00;;;;;;4841984;29;20044;-78
2022/05/27 15:20:33;;;;;;;5.22;1.60;;;15.90;98.40;;;;;;4857408;29;20041;-77
2022/05/27 15:23:05;;;;;;;5.22;1.17;;;15.70;98.40;;;;;;4846783;29;20045;-78
2022/05/27 15:25:46;;;;;;;6.57;1.40;;;15.70;99.90;;;;;;4845165;29;20064;-78
2022/05/27 15:34:23;;;;;;;5.22;1.30;;;15.50;99.90;;;;;;4850351;29;20048;-77
2022/05/27 15:36:57;;;;;;;5.90;1.38;;;15.50;99.90;;;;;;4840908;29;20516;-76
2022/05/27 15:39:26;;;;;;;8.23;1.30;;;15.40;99.70;;;;;;4838858;29;20076;-77
2022/05/27 15:42:00;;;;;;;6.30;1.20;;;15.30;99.90;;;;;;4862026;29;20559;-77
2022/05/27 15:44:36;;;;;;;8.80;1.30;;;15.30;99.90;;;;;;4862052;29;20184;-77
2022/05/27 15:47:16;;;;;;;6.85;1.38;;;15.40;99.90;;;;;;4841439;29;20056;-77
2022/05/27 15:49:56;;;;;;;6.05;1.42;;;15.40;99.90;;;;;;4842641;29;20041;-77
2022/05/27 15:52:29;;;;;;;7.47;1.90;;;15.30;99.90;;;;;;4846358;29;20045;-77
2022/05/27 15:55:09;;;;;;;7.63;1.40;;;15.20;99.90;;;;;;4846530;29;20505;-77
2022/05/27 15:57:45;;;;;;;5.10;1.38;;;15.10;99.90;;;;;;4840528;29;20057;-77
2022/05/27 16:00:24;;;;;;;7.18;1.20;;;15.10;99.90;;;;;;4879493;23;20106;-76
2022/05/27 16:03:04;;;;;;;7.28;1.50;;;15.20;99.90;;;;;;4851006;29;20100;-76
2022/05/27 16:05:36;;;;;;;7.93;1.20;;;15.10;99.90;;;;;;4855402;29;20465;-77
2022/05/27 16:08:15;;;;;;;6.68;1.10;;;15.00;99.90;;;;;;4854657;29;20041;-77
2022/05/27 16:10:46;;;;;;;6.93;1.15;;;15.00;99.90;;;;;;4845468;29;20037;-76
2022/05/27 16:13:51;;;;;;;6.85;1.20;;;15.00;99.90;;;;;;4844824;29;20452;-77
2022/05/27 16:25:59;;;;;;;5.95;1.50;;;15.00;99.90;;;;;;4850790;29;20502;-77
2022/05/27 16:29:00;;;;;;;6.03;1.55;;;14.90;99.90;;;;;;4870573;29;20044;-78
2022/05/27 16:32:24;;;;;;;8.63;1.42;;;14.80;99.90;;;;;;4880654;29;20550;-77
2022/05/27 16:35:44;;;;;;;8.77;1.45;;;14.60;99.90;;;;;;4845644;29;20053;-77
2022/05/27 16:39:20;;;;;;;7.57;1.55;;;14.50;99.90;;;;;;4888024;29;20051;-79
2022/05/27 16:42:50;;;;;;;6.78;1.30;;;14.50;99.90;;;;;;5429107;23;20155;-79
2022/05/27 16:46:19;;;;;;;;;;;;;;;;;;;;;
2022/05/27 16:49:18;;;;;;;5.65;1.05;;;14.50;99.90;;;;;;4890698;29;20047;-78
2022/05/27 16:52:46;;;;;;;;;;;;;;;;;;;;;
2022/05/27 16:58:13;;;;;;;4.00;1.02;;;14.30;99.90;;;;;;4920090;23;20068;-80
2022/05/27 17:00:41;;;;;;;7.13;1.50;;;14.20;99.90;;;;;;4869988;29;20057;-80
2022/05/27 17:03:06;;;;;;;5.80;1.08;;;14.20;99.90;;;;;;4850177;29;20126;-81
2022/05/27 17:05:32;;;;;;;4.07;0.75;;;14.10;99.90;;;;;;4850949;29;20085;-81
2022/05/27 17:07:57;;;;;;;4.63;1.17;;;14.10;99.90;;;;;;4850327;29;20424;-80
2022/05/27 17:10:23;;;;;;;5.15;1.23;;;14.10;99.90;;;;;;4853634;29;20279;-81
2022/05/27 17:12:49;;;;;;;6.22;0.90;;;14.00;99.90;;;;;;4866038;29;20120;-82
2022/05/27 17:15:18;;;;;;;6.05;1.40;;;14.00;99.90;;;;;;4884817;29;20072;-81
2022/05/27 17:17:44;;;;;;;5.93;1.30;;;13.90;99.90;;;;;;4871185;29;20040;-82
2022/05/27 17:20:10;;;;;;;5.32;1.20;;;13.90;99.90;;;;;;4874086;29;20078;-82
2022/05/27 17:22:36;;;;;;;4.57;1.35;;;13.90;99.90;;;;;;4872950;29;20045;-80
2022/05/27 17:25:03;;;;;;;7.63;1.13;;;13.80;99.90;;;;;;4873199;29;20055;-82
2022/05/27 17:27:28;;;;;;;4.85;1.02;;;13.80;99.90;;;;;;4862609;29;20127;-81
2022/05/27 17:29:54;;;;;;;7.90;1.20;;;13.80;99.90;;;;;;4849913;29;20131;-81
2022/05/27 17:32:20;;;;;;;7.45;1.52;;;13.80;99.90;;;;;;4865364;29;20169;-81
2022/05/27 17:34:45;;;;;;;5.68;1.00;;;13.90;99.90;;;;;;4865475;29;20384;-80
2022/05/27 17:37:12;;;;;;;5.15;1.02;;;13.90;99.90;;;;;;4858787;29;20048;-81
2022/05/27 17:39:37;;;;;;;8.18;1.10;;;13.90;99.90;;;;;;4861565;29;20123;-81
2022/05/27 17:42:03;;;;;;;5.60;1.00;;;13.80;99.90;;;;;;4865404;29;20101;-81
2022/05/27 17:44:29;;;;;;;8.38;1.30;;;13.80;99.90;;;;;;4849722;29;20098;-81
2022/05/27 17:52:22;;;;;;;5.53;0.73;;;13.70;99.90;;;;;;4877929;29;20479;-81
2022/05/27 17:54:49;;;;;;;5.85;1.00;;;13.60;99.90;;;;;;4852959;29;20122;-81
2022/05/27 17:57:15;;;;;;;6.32;0.82;;;13.60;99.90;;;;;;4865321;29;20140;-81
2022/05/27 17:59:41;;;;;;;5.13;0.93;;;13.50;99.90;;;;;;4849676;29;20049;-81
2022/05/27 18:02:08;;;;;;;5.38;1.35;;;13.50;99.90;;;;;;4866542;29;20052;-81
2022/05/27 18:04:35;;;;;;;5.88;1.00;;;13.40;99.90;;;;;;4882521;29;20064;-81
2022/05/27 18:07:00;;;;;;;5.05;1.02;;;13.40;99.90;;;;;;4859156;29;20056;-82
2022/05/27 18:09:26;;;;;;;5.03;1.05;;;13.40;99.90;;;;;;4865440;29;20041;-80
2022/05/27 18:11:55;;;;;;;6.03;1.65;;;13.30;99.90;;;;;;4850346;29;20048;-81
2022/05/27 18:14:21;;;;;;;7.95;1.08;;;13.30;99.90;;;;;;4876717;29;20415;-81
2022/05/27 18:16:47;;;;;;;4.80;1.00;;;13.20;99.90;;;;;;4876149;29;20045;-81
2022/05/27 18:19:13;;;;;;;5.15;1.00;;;13.20;99.90;;;;;;4865877;29;20056;-81
2022/05/27 18:21:38;;;;;;;5.13;1.15;;;13.10;99.90;;;;;;4850973;29;20041;-81
2022/05/27 18:24:04;;;;;;;5.05;1.00;;;13.10;99.90;;;;;;4866078;29;20041;-81
2022/05/27 18:26:30;;;;;;;6.28;1.30;;;13.00;99.90;;;;;;4863992;29;20057;-81
2022/05/27 18:28:55;;;;;;;3.78;0.93;;;12.90;99.90;;;;;;4882329;29;20048;-81
2022/05/27 18:31:21;;;;;;;5.88;1.40;;;12.90;99.90;;;;;;4868478;29;20172;-81
2022/05/27 18:33:47;;;;;;;4.75;0.93;;;12.80;99.90;;;;;;4853759;29;20045;-81
2022/05/27 18:36:13;;;;;;;5.53;1.02;;;12.80;99.90;;;;;;4866012;29;20060;-81
2022/05/27 18:38:39;;;;;;;6.50;1.00;;;12.80;99.90;;;;;;4865475;29;20049;-81
2022/05/27 18:41:05;;;;;;;5.30;1.10;;;12.80;99.90;;;;;;4857562;29;20040;-81
2022/05/27 18:43:31;;;;;;;7.38;1.05;;;12.80;99.90;;;;;;4879532;29;20041;-80
2022/05/27 18:45:59;;;;;;;4.00;1.05;;;12.80;99.90;;;;;;4850600;29;20077;-81
2022/05/27 18:48:25;;;;;;;5.28;1.35;;;12.80;99.90;;;;;;4866390;29;20048;-81
2022/05/27 18:50:50;;;;;;;5.03;1.55;;;12.70;99.90;;;;;;4866554;29;20500;-82
2022/05/27 18:53:16;;;;;;;5.10;1.05;;;12.70;99.90;;;;;;4851163;29;20403;-81
2022/05/27 18:55:43;;;;;;;5.55;1.00;;;12.60;99.90;;;;;;4864309;29;20106;-81
2022/05/27 18:58:10;;;;;;;5.20;1.20;;;12.50;99.90;;;;;;4858712;29;20072;-80
2022/05/27 19:00:37;;;;;;;5.60;1.10;;;12.50;99.90;;;;;;4866556;29;20041;-81
2022/05/27 19:03:04;;;;;;;6.88;1.23;;;12.40;99.90;;;;;;4851014;29;20415;-82
2022/05/27 19:05:30;;;;;;;5.88;0.95;;;12.30;99.90;;;;;;4863908;29;20104;-81
2022/05/27 19:07:56;;;;;;;4.25;1.10;;;12.30;99.90;;;;;;4869288;29;20040;-81
2022/05/27 19:10:23;;;;;;;5.78;1.40;;;12.20;99.90;;;;;;4866164;29;20033;-82
2022/05/27 19:12:52;;;;;;;4.00;1.08;;;12.10;99.90;;;;;;4852430;29;20131;-81
2022/05/27 19:15:19;;;;;;;4.70;1.10;;;12.00;99.90;;;;;;4873359;29;20037;-80
2022/05/27 19:17:44;;;;;;;5.00;0.90;;;11.90;99.90;;;;;;4866461;29;20040;-81
2022/05/27 19:22:57;;;;;;;5.97;0.90;;;11.80;99.90;;;;;;4885613;29;20132;-80
2022/05/27 19:25:22;;;;;;;4.22;1.20;;;11.70;99.90;;;;;;4874651;29;20041;-80
2022/05/27 19:27:48;;;;;;;3.47;0.90;;;11.70;99.90;;;;;;4853450;29;20108;-80
2022/05/27 19:30:13;;;;;;;5.22;1.10;;;11.60;99.90;;;;;;4873892;29;20036;-80
2022/05/27 19:32:39;;;;;;;3.05;0.95;;;11.50;99.90;;;;;;4879514;29;20037;-81
2022/05/27 19:35:05;;;;;;;6.95;1.33;;;11.40;99.90;;;;;;4870643;29;20048;-80
2022/05/27 19:37:31;;;;;;;3.42;0.93;;;11.30;99.90;;;;;;4887933;29;20419;-80
2022/05/27 19:39:57;;;;;;;5.75;2.20;;;11.30;99.90;;;;;;4887398;29;20044;-80
2022/05/27 19:42:24;;;;;;;3.53;1.10;;;11.20;99.90;;;;;;4886965;29;20452;-80
2022/05/27 19:44:49;;;;;;;4.43;1.27;;;11.10;99.90;;;;;;4867656;29;20037;-80
2022/05/27 19:47:15;;;;;;;4.45;0.90;;;11.00;99.90;;;;;;4865503;29;20051;-80
2022/05/27 19:49:40;;;;;;;6.60;1.20;;;11.00;99.90;;;;;;4865933;29;20040;-80
2022/05/27 19:52:09;;;;;;;3.67;0.90;;;10.90;99.90;;;;;;4866163;29;20052;-80
2022/05/27 19:54:36;;;;;;;8.10;1.20;;;10.80;99.90;;;;;;4866357;29;20507;-80
2022/05/27 19:59:47;;;;;;;7.03;1.33;;;10.70;99.90;;;;;;4880122;29;20047;-81
2022/05/27 20:04:58;;;;;;;5.38;0.90;;;10.60;99.90;;;;;;4863108;29;20515;-81
2022/05/27 20:07:31;;;;;;;7.43;1.27;;;10.60;99.90;;;;;;4863794;29;20477;-81
2022/05/27 20:09:59;;;;;;;7.07;1.40;;;10.50;99.90;;;;;;4876787;29;20427;-80
2022/05/27 20:12:29;;;;;;;7.55;1.40;;;10.50;99.90;;;;;;4854178;29;20037;-81
2022/05/27 20:14:55;;;;;;;3.85;0.98;;;10.40;99.90;;;;;;4847569;29;20045;-80
2022/05/27 20:17:21;;;;;;;3.65;1.23;;;10.50;99.90;;;;;;4848310;29;20056;-80
2022/05/27 20:19:48;;;;;;;7.20;1.40;;;10.40;99.90;;;;;;4848477;29;20100;-81
2022/05/27 20:22:16;;;;;;;3.72;1.15;;;10.40;99.90;;;;;;4864792;29;20052;-80
2022/05/27 20:24:41;;;;;;;3.50;1.42;;;10.40;99.90;;;;;;4866276;29;20535;-81
2022/05/27 20:27:07;;;;;;;6.72;1.13;;;10.40;99.90;;;;;;4864330;29;20077;-81
2022/05/27 20:29:34;;;;;;;6.03;1.15;;;10.40;99.90;;;;;;4848690;29;20124;-80
2022/05/27 20:32:00;;;;;;;6.38;1.30;;;10.40;99.90;;;;;;4849434;29;20052;-80
2022/05/27 20:34:26;;;;;;;6.20;1.17;;;10.40;99.90;;;;;;4863041;29;20037;-80
2022/05/27 20:36:58;;;;;;;4.43;1.20;;;10.30;99.90;;;;;;4873276;29;20052;-80
2022/05/27 20:39:43;;;;;;;6.78;1.50;;;10.30;99.90;;;;;;4861117;29;20048;-80
2022/05/27 20:42:12;;;;;;;6.00;1.70;;;10.30;99.90;;;;;;4867244;29;20383;-81
2022/05/27 20:44:39;;;;;;;3.45;1.10;;;10.30;99.90;;;;;;4868334;29;20037;-81
2022/05/27 20:47:06;;;;;;;7.32;2.35;;;10.30;99.90;;;;;;4867755;29;20436;-81
2022/05/27 20:49:31;;;;;;;3.35;1.10;;;10.30;99.90;;;;;;4881363;29;20063;-81
2022/05/27 20:51:58;;;;;;;5.72;1.10;;;10.30;99.90;;;;;;4851467;29;20033;-81
2022/05/27 20:54:24;;;;;;;5.75;1.30;;;10.30;99.90;;;;;;4867125;29;20060;-80
2022/05/27 20:56:50;;;;;;;5.63;1.20;;;10.30;99.90;;;;;;4855495;29;20044;-81
2022/05/27 20:59:18;;;;;;;3.05;0.93;;;10.20;99.90;;;;;;4852216;29;20057;-80
2022/05/27 21:01:45;;;;;;;4.70;1.15;;;10.20;99.90;;;;;;4860348;29;20246;-80
2022/05/27 21:04:15;;;;;;;4.38;0.90;;;10.20;99.90;;;;;;4868024;29;20068;-78
2022/05/27 21:06:40;;;;;;;2.85;1.17;;;10.20;99.90;;;;;;4882373;29;20048;-78
2022/05/27 21:09:06;;;;;;;5.00;1.15;;;10.20;99.90;;;;;;4883199;29;20506;-79
2022/05/27 21:11:35;;;;;;;4.82;1.23;;;10.20;99.90;;;;;;4868430;29;20045;-79
2022/05/27 21:14:02;;;;;;;6.35;1.50;;;10.20;99.90;;;;;;4859559;29;20048;-79
2022/05/27 21:16:29;;;;;;;6.25;1.00;;;10.10;99.90;;;;;;4896312;29;20132;-79
2022/05/27 21:18:56;;;;;;;5.30;1.25;;;10.10;99.90;;;;;;4869705;29;20045;-79
2022/05/27 21:21:24;;;;;;;5.97;1.13;;;10.10;99.90;;;;;;4885728;29;20051;-79
2022/05/27 21:23:51;;;;;;;5.72;1.40;;;10.10;99.90;;;;;;4865068;29;20467;-79
2022/05/27 21:26:17;;;;;;;7.32;1.10;;;10.10;99.90;;;;;;4875202;29;20051;-79
2022/05/27 21:28:43;;;;;;;7.65;1.20;;;10.00;99.90;;;;;;4869248;29;20037;-79
2022/05/27 21:31:09;;;;;;;5.45;1.45;;;10.00;99.90;;;;;;4881423;29;20526;-79
2022/05/27 21:33:35;;;;;;;3.17;1.02;;;9.90;99.90;;;;;;4880658;29;20040;-79
2022/05/27 21:36:02;;;;;;;7.68;1.67;;;9.90;99.90;;;;;;4869272;29;20051;-79
2022/05/27 21:38:28;;;;;;;8.10;1.30;;;9.90;99.90;;;;;;4867961;29;20036;-78
2022/05/27 21:40:54;;;;;;;5.05;1.25;;;9.90;99.90;;;;;;4859760;29;20044;-79
2022/05/27 21:43:20;;;;;;;7.43;1.50;;;9.90;99.90;;;;;;4870554;29;20050;-79
2022/05/27 21:45:46;;;;;;;5.72;1.48;;;9.90;99.90;;;;;;4870751;29;20439;-79
2022/05/27 21:48:11;;;;;;;5.38;1.40;;;9.90;99.90;;;;;;4896783;29;20135;-79
2022/05/27 21:50:37;;;;;;;6.40;1.52;;;9.90;99.90;;;;;;4885844;29;20036;-79
2022/05/27 21:53:02;;;;;;;5.18;1.52;;;9.90;99.90;;;;;;4877637;29;20036;-79
2022/05/27 21:55:28;;;;;;;8.05;1.40;;;9.90;99.90;;;;;;4865659;29;20040;-79
2022/05/27 21:57:54;;;;;;;7.80;2.72;;;9.90;99.90;;;;;;4871191;29;20104;-79
2022/05/27 22:00:21;;;;;;;7.45;1.50;;;9.90;99.90;;;;;;4871481;29;20036;-79
2022/05/27 22:02:47;;;;;;;4.50;1.98;;;9.80;99.90;;;;;;4880268;29;20448;-79
2022/05/27 22:05:13;;;;;;;7.03;1.65;;;9.80;99.90;;;;;;4878763;29;20072;-79
2022/05/27 22:07:38;;;;;;;5.50;1.48;;;9.80;99.90;;;;;;4880885;29;20064;-79
2022/05/27 22:12:52;;;;;;;5.18;1.30;;;9.70;99.90;;;;;;4873055;29;20052;-79
2022/05/27 22:15:23;;;;;;;7.07;1.98;;;9.70;99.90;;;;;;4862266;29;20120;-79
2022/05/27 22:17:49;;;;;;;5.03;1.52;;;9.70;99.90;;;;;;4878214;29;20491;-79
2022/05/27 22:20:16;;;;;;;7.95;1.85;;;9.60;99.90;;;;;;4864233;29;20073;-79
2022/05/27 22:22:42;;;;;;;6.97;1.92;;;9.60;99.90;;;;;;4873776;29;20051;-79
2022/05/27 22:25:09;;;;;;;3.92;1.75;;;9.60;99.90;;;;;;4874852;29;20100;-79
2022/05/27 22:27:35;;;;;;;8.13;1.52;;;9.60;99.90;;;;;;4887614;29;20514;-80
2022/05/27 22:30:01;;;;;;;7.63;1.55;;;9.60;99.90;;;;;;4858655;29;20037;-79
2022/05/27 22:32:28;;;;;;;5.80;2.03;;;9.60;99.90;;;;;;4885531;29;20044;-79
2022/05/27 22:34:54;;;;;;;9.27;1.40;;;9.60;99.90;;;;;;4887904;29;20048;-79
2022/05/27 22:37:23;;;;;;;6.15;1.30;;;9.60;99.90;;;;;;4882855;29;20111;-79
2022/05/27 22:39:49;;;;;;;6.93;1.50;;;9.60;99.90;;;;;;4882620;29;20103;-80
2022/05/27 22:42:15;;;;;;;4.80;1.33;;;9.60;99.90;;;;;;4866982;29;20044;-79
2022/05/27 22:44:41;;;;;;;9.05;1.52;;;9.70;99.90;;;;;;4861429;29;20037;-79
2022/05/27 22:47:06;;;;;;;7.85;1.58;;;9.70;99.90;;;;;;4879811;29;20073;-79
2022/05/27 22:49:33;;;;;;;7.20;1.58;;;9.70;99.90;;;;;;4857300;29;20041;-79
2022/05/27 22:51:58;;;;;;;6.22;1.80;;;9.80;99.90;;;;;;4861153;29;20051;-80
2022/05/27 22:54:24;;;;;;;6.00;1.38;;;9.80;99.90;;;;;;4886556;29;20040;-80
2022/05/27 22:57:21;;;;;;;8.80;2.00;;;9.80;99.90;;;;;;4898971;23;20042;-80
2022/05/27 23:00:28;;;;;;;4.25;1.10;;;9.80;99.90;;;;;;4832850;29;20110;-81
2022/05/27 23:03:23;;;;;;;6.05;1.60;;;9.80;99.90;;;;;;4834292;29;20069;-80
2022/05/27 23:06:38;;;;;;;6.00;1.20;;;9.80;99.90;;;;;;4772377;30;20091;-81
2022/05/27 23:09:54;;;;;;;5.15;1.00;;;9.90;99.90;;;;;;4771208;29;20047;-78
2022/05/27 23:19:52;;;;;;;;;;;;;;;;;;;;;
2022/05/27 23:26:17;;;;;;;3.95;1.25;;;9.90;99.90;;;;;;4848574;29;20057;-78
2022/05/27 23:29:30;;;;;;;8.88;1.40;;;9.90;99.90;;;;;;4841599;29;20441;-78
2022/05/27 23:32:37;;;;;;;5.68;0.98;;;9.90;99.90;;;;;;4850538;29;20183;-78
2022/05/27 23:39:02;;;;;;;4.40;1.23;;;10.00;99.90;;;;;;4868921;23;20086;-81
2022/05/27 23:45:07;;;;;;;5.38;0.98;;;10.20;99.90;;;;;;4830563;29;20338;-80
2022/05/27 23:48:06;;;;;;;6.03;1.17;;;10.30;99.90;;;;;;4760526;30;20059;-81
2022/05/27 23:50:35;;;;;;;5.82;1.38;;;10.50;99.90;;;;;;4796326;23;20049;-79
2022/05/27 23:53:01;;;;;;;3.53;0.90;;;10.50;99.90;;;;;;4863370;29;20052;-78
2022/05/27 23:55:26;;;;;;;4.50;1.15;;;10.50;99.90;;;;;;4863029;29;20045;-78
2022/05/27 23:57:52;;;;;;;4.75;1.27;;;10.60;99.90;;;;;;4847571;29;20131;-79
